Time,TemperatureF,DewpointF,PressureIn,WindDirection,WindDirectionDegrees,WindSpeedMPH,WindSpeedGustMPH,Humidity,HourlyPrecipIn,Conditions,Clouds,dailyrainin,SoftwareType,DateUTC
2013-07-11 00:02:00,66.0,65.0,-100.00,SE,135,0.0,1.0,95,0.00,,,-99.99,,2013-07-11 05:02:00,
2013-07-11 00:12:00,66.0,65.0,-100.00,SW,215,0.0,0.0,95,0.00,,,-99.99,,2013-07-11 05:12:00,
2013-07-11 00:22:00,65.0,64.0,-100.00,SSE,160,1.0,2.0,95,0.00,,,-99.99,,2013-07-11 05:22:00,
2013-07-11 00:32:00,65.0,63.0,-100.00,SSE,165,1.0,2.0,95,0.00,,,-99.99,,2013-07-11 05:32:00,
2013-07-11 00:43:00,65.0,63.0,-100.00,SE,145,1.0,2.0,95,0.00,,,-99.99,,2013-07-11 05:43:00,
2013-07-11 00:52:00,65.0,63.0,-100.00,SE,130,1.0,2.0,95,0.08,,,-99.99,,2013-07-11 05:52:00,
2013-07-11 01:01:00,65.0,63.0,-100.00,South,170,1.0,1.0,95,0.00,,,-99.99,,2013-07-11 06:01:00,
2013-07-11 01:12:00,64.0,63.0,-100.00,South,170,1.0,2.0,95,0.00,,,-99.99,,2013-07-11 06:12:00,
2013-07-11 01:22:00,63.0,62.0,-100.00,South,185,1.0,1.0,95,0.00,,,-99.99,,2013-07-11 06:22:00,
2013-07-11 01:32:00,63.0,62.0,-100.00,WSW,240,0.0,1.0,95,0.00,,,-99.99,,2013-07-11 06:32:00,
2013-07-11 01:43:00,63.0,62.0,-100.00,SSW,195,0.0,1.0,95,0.00,,,-99.99,,2013-07-11 06:43:00,
2013-07-11 01:52:00,63.0,62.0,-100.00,SSE,165,1.0,1.0,95,0.00,,,-99.99,,2013-07-11 06:52:00,
2013-07-11 02:02:00,63.0,61.0,-100.00,SE,140,0.0,1.0,95,0.00,,,-99.99,,2013-07-11 07:02:00,
2013-07-11 02:12:00,62.0,61.0,-100.00,SE,140,0.0,1.0,95,0.00,,,-99.99,,2013-07-11 07:12:00,
2013-07-11 02:22:00,62.0,60.0,-100.00,SE,140,0.0,0.0,95,0.00,,,-99.99,,2013-07-11 07:22:00,
2013-07-11 02:32:00,62.0,61.0,-100.00,NNE,20,0.0,2.0,95,0.00,,,-99.99,,2013-07-11 07:32:00,
2013-07-11 02:45:00,62.0,61.0,-100.00,North,5,0.0,1.0,95,0.00,,,-99.99,,2013-07-11 07:45:00,
2013-07-11 03:02:00,62.0,61.0,-100.00,NNW,345,1.0,4.0,95,0.00,,,-99.99,,2013-07-11 08:02:00,
2013-07-11 03:11:00,62.0,61.0,-100.00,North,0,2.0,4.0,95,0.00,,,-99.99,,2013-07-11 08:11:00,
2013-07-11 03:22:00,62.0,61.0,-100.00,North,5,3.0,4.0,95,0.00,,,-99.99,,2013-07-11 08:22:00,
2013-07-11 03:34:00,61.0,60.0,-100.00,NW,315,4.0,7.0,95,0.00,,,-99.99,,2013-07-11 08:34:00,
2013-07-11 03:43:00,61.0,60.0,-100.00,NNW,335,4.0,5.0,95,0.00,,,-99.99,,2013-07-11 08:43:00,
2013-07-11 03:53:00,61.0,60.0,-100.00,NNW,345,2.0,4.0,95,0.00,,,-99.99,,2013-07-11 08:53:00,
2013-07-11 04:03:00,61.0,60.0,-100.00,North,0,1.0,4.0,95,0.00,,,-99.99,,2013-07-11 09:03:00,
2013-07-11 04:12:00,62.0,60.0,-100.00,NNW,345,2.0,2.0,95,0.00,,,-99.99,,2013-07-11 09:12:00,
2013-07-11 04:21:00,61.0,60.0,-100.00,SSW,210,0.0,2.0,95,0.00,,,-99.99,,2013-07-11 09:21:00,
2013-07-11 04:33:00,61.0,60.0,-100.00,NE,45,1.0,2.0,95,0.00,,,-99.99,,2013-07-11 09:33:00,
2013-07-11 04:43:00,61.0,60.0,-100.00,North,10,0.0,1.0,95,0.00,,,-99.99,,2013-07-11 09:43:00,
2013-07-11 05:12:00,61.0,59.0,-100.00,NNW,345,1.0,3.0,95,0.00,,,-99.99,,2013-07-11 10:12:00,
2013-07-11 05:22:00,61.0,59.0,-100.00,North,5,1.0,2.0,95,0.08,,,-99.99,,2013-07-11 10:22:00,
2013-07-11 05:33:00,60.0,59.0,-100.00,NNW,340,2.0,3.0,95,0.00,,,-99.99,,2013-07-11 10:33:00,
2013-07-11 05:43:00,60.0,59.0,-100.00,WNW,290,1.0,3.0,95,0.00,,,-99.99,,2013-07-11 10:43:00,
2013-07-11 06:02:00,60.0,58.0,-100.00,NNW,340,2.0,4.0,95,0.00,,,-99.99,,2013-07-11 11:02:00,
2013-07-11 06:12:00,60.0,58.0,-100.00,NNW,330,1.0,4.0,95,0.00,,,-99.99,,2013-07-11 11:12:00,
2013-07-11 06:22:00,60.0,59.0,-100.00,NNW,335,2.0,4.0,95,0.00,,,-99.99,,2013-07-11 11:22:00,
2013-07-11 06:32:00,60.0,59.0,-100.00,North,10,1.0,3.0,95,0.00,,,-99.99,,2013-07-11 11:32:00,
2013-07-11 06:43:00,61.0,59.0,-100.00,NW,315,1.0,3.0,95,0.00,,,-99.99,,2013-07-11 11:43:00,
2013-07-11 07:01:00,61.0,60.0,-100.00,North,0,1.0,2.0,95,0.00,,,-99.99,,2013-07-11 12:01:00,
2013-07-11 07:12:00,63.0,61.0,-100.00,NNW,335,1.0,2.0,95,0.00,,,-99.99,,2013-07-11 12:12:00,
2013-07-11 07:22:00,64.0,62.0,-100.00,NE,40,1.0,2.0,95,0.00,,,-99.99,,2013-07-11 12:22:00,
2013-07-11 07:43:00,65.0,64.0,-100.00,NE,35,1.0,2.0,95,0.00,,,-99.99,,2013-07-11 12:43:00,
2013-07-11 08:23:00,70.0,66.0,-100.00,SE,130,0.0,1.0,87,0.00,,,-99.99,,2013-07-11 13:23:00,
2013-07-11 09:04:00,71.0,66.0,-100.00,ESE,120,3.0,4.0,84,0.00,,,-99.99,,2013-07-11 14:04:00,
2013-07-11 09:15:00,72.0,67.0,-100.00,ESE,115,2.0,4.0,85,0.00,,,-99.99,,2013-07-11 14:15:00,
2013-07-11 09:23:00,73.0,67.0,-100.00,East,100,2.0,4.0,81,0.00,,,-99.99,,2013-07-11 14:23:00,
2013-07-11 09:35:00,74.0,67.0,-100.00,ENE,65,2.0,4.0,80,0.00,,,-99.99,,2013-07-11 14:35:00,
2013-07-11 09:45:00,75.0,67.0,-100.00,SE,125,0.0,4.0,77,0.00,,,-99.99,,2013-07-11 14:45:00,
2013-07-11 09:54:00,75.0,66.0,-100.00,ESE,115,3.0,6.0,73,0.00,,,-99.99,,2013-07-11 14:54:00,
2013-07-11 10:13:00,76.0,65.0,-100.00,SE,125,4.0,6.0,67,0.00,,,-99.99,,2013-07-11 15:13:00,
2013-07-11 10:24:00,76.0,65.0,-100.00,ESE,105,4.0,6.0,68,0.00,,,-99.99,,2013-07-11 15:24:00,
2013-07-11 10:45:00,78.0,63.0,-100.00,SSE,160,3.0,6.0,59,0.00,,,-99.99,,2013-07-11 15:45:00,
2013-07-11 11:05:00,78.0,62.0,-100.00,ESE,110,4.0,11.0,57,0.00,,,-99.99,,2013-07-11 16:05:00,
2013-07-11 11:14:00,79.0,61.0,-100.00,SE,145,6.0,11.0,54,0.00,,,-99.99,,2013-07-11 16:14:00,
2013-07-11 11:24:00,79.0,61.0,-100.00,ESE,120,6.0,9.0,54,0.00,,,-99.99,,2013-07-11 16:24:00,
2013-07-11 11:35:00,79.0,61.0,-100.00,SSE,150,5.0,10.0,54,0.00,,,-99.99,,2013-07-11 16:35:00,
2013-07-11 11:46:00,80.0,59.0,-100.00,SSE,160,4.0,7.0,49,0.00,,,-99.99,,2013-07-11 16:46:00,
2013-07-11 11:54:00,79.0,61.0,-100.00,ESE,120,7.0,10.0,53,0.00,,,-99.99,,2013-07-11 16:54:00,
2013-07-11 12:02:00,80.0,60.0,-100.00,ESE,120,6.0,11.0,50,0.00,,,-99.99,,2013-07-11 17:02:00,
2013-07-11 12:15:00,80.0,61.0,-100.00,ESE,110,6.0,11.0,52,0.00,,,-99.99,,2013-07-11 17:15:00,
2013-07-11 12:26:00,80.0,61.0,-100.00,SE,145,6.0,11.0,52,0.00,,,-99.99,,2013-07-11 17:26:00,
2013-07-11 12:38:00,81.0,62.0,-100.00,ESE,120,4.0,7.0,53,0.00,,,-99.99,,2013-07-11 17:38:00,
2013-07-11 12:45:00,79.0,59.0,-100.00,East,90,7.0,11.0,49,0.00,,,-99.99,,2013-07-11 17:45:00,
2013-07-11 13:05:00,80.0,58.0,-100.00,SE,125,4.0,11.0,47,0.00,,,-99.99,,2013-07-11 18:05:00,
2013-07-11 13:14:00,81.0,61.0,-100.00,SE,130,2.0,11.0,50,0.00,,,-99.99,,2013-07-11 18:14:00,
2013-07-11 13:24:00,81.0,60.0,-100.00,ENE,65,7.0,13.0,49,0.00,,,-99.99,,2013-07-11 18:24:00,
2013-07-11 13:35:00,81.0,60.0,-100.00,SE,130,6.0,9.0,49,0.00,,,-99.99,,2013-07-11 18:35:00,
2013-07-11 13:45:00,80.0,60.0,-100.00,East,100,6.0,11.0,49,0.00,,,-99.99,,2013-07-11 18:45:00,
2013-07-11 14:13:00,81.0,62.0,-100.00,ENE,75,7.0,11.0,51,0.00,,,-99.99,,2013-07-11 19:13:00,
2013-07-11 14:23:00,82.0,61.0,-100.00,East,100,9.0,13.0,48,0.00,,,-99.99,,2013-07-11 19:23:00,
2013-07-11 14:44:00,81.0,60.0,-100.00,NE,55,2.0,8.0,48,0.00,,,-99.99,,2013-07-11 19:44:00,
2013-07-11 15:05:00,82.0,60.0,-100.00,SE,130,8.0,12.0,47,0.00,,,-99.99,,2013-07-11 20:05:00,
2013-07-11 15:13:00,83.0,59.0,-100.00,ESE,110,5.0,7.0,44,0.00,,,-99.99,,2013-07-11 20:13:00,
2013-07-11 15:25:00,82.0,59.0,-100.00,ESE,115,7.0,12.0,45,0.00,,,-99.99,,2013-07-11 20:25:00,
2013-07-11 15:46:00,83.0,59.0,-100.00,SSE,155,7.0,10.0,44,0.00,,,-99.99,,2013-07-11 20:46:00,
2013-07-11 16:05:00,83.0,61.0,-100.00,SSE,165,7.0,12.0,47,0.00,,,-99.99,,2013-07-11 21:05:00,
2013-07-11 16:35:00,82.0,61.0,-100.00,SSE,160,8.0,12.0,48,0.00,,,-99.99,,2013-07-11 21:35:00,
2013-07-11 16:44:00,84.0,60.0,-100.00,South,190,6.0,11.0,45,0.00,,,-99.99,,2013-07-11 21:44:00,
2013-07-11 16:55:00,84.0,61.0,-100.00,SSW,200,6.0,9.0,46,0.00,,,-99.99,,2013-07-11 21:55:00,
2013-07-11 17:05:00,83.0,62.0,-100.00,South,180,6.0,10.0,48,0.00,,,-99.99,,2013-07-11 22:05:00,
2013-07-11 17:15:00,83.0,59.0,-100.00,SE,130,5.0,10.0,44,0.00,,,-99.99,,2013-07-11 22:15:00,
2013-07-11 17:34:00,84.0,61.0,-100.00,SSE,165,3.0,9.0,45,0.00,,,-99.99,,2013-07-11 22:34:00,
2013-07-11 17:46:00,83.0,59.0,-100.00,SSE,165,6.0,10.0,44,0.00,,,-99.99,,2013-07-11 22:46:00,
2013-07-11 17:54:00,83.0,59.0,-100.00,SE,125,5.0,7.0,44,0.00,,,-99.99,,2013-07-11 22:54:00,
2013-07-11 18:13:00,83.0,61.0,-100.00,South,170,4.0,9.0,47,0.00,,,-99.99,,2013-07-11 23:13:00,
2013-07-11 18:35:00,82.0,61.0,-100.00,South,170,4.0,9.0,48,0.00,,,-99.99,,2013-07-11 23:35:00,
2013-07-11 18:46:00,82.0,61.0,-100.00,SSE,155,4.0,7.0,48,0.00,,,-99.99,,2013-07-11 23:46:00,
2013-07-11 19:05:00,81.0,60.0,-100.00,SSE,160,2.0,10.0,48,0.00,,,-99.99,,2013-07-12 00:05:00,
2013-07-11 19:24:00,81.0,60.0,-100.00,SSE,150,4.0,9.0,48,0.00,,,-99.99,,2013-07-12 00:24:00,
2013-07-11 19:36:00,81.0,60.0,-100.00,SE,135,4.0,7.0,49,0.00,,,-99.99,,2013-07-12 00:36:00,
2013-07-11 19:44:00,81.0,61.0,-100.00,SSE,155,3.0,7.0,50,0.00,,,-99.99,,2013-07-12 00:44:00,
2013-07-11 19:55:00,80.0,61.0,-100.00,SSE,165,4.0,7.0,53,0.00,,,-99.99,,2013-07-12 00:55:00,
2013-07-11 20:04:00,80.0,62.0,-100.00,SSE,160,4.0,6.0,54,0.00,,,-99.99,,2013-07-12 01:04:00,
2013-07-11 20:13:00,79.0,62.0,-100.00,South,170,4.0,6.0,56,0.00,,,-99.99,,2013-07-12 01:13:00,
2013-07-11 20:26:00,79.0,62.0,-100.00,South,170,3.0,6.0,57,0.00,,,-99.99,,2013-07-12 01:26:00,
2013-07-11 20:36:00,79.0,62.0,-100.00,South,170,3.0,6.0,57,0.00,,,-99.99,,2013-07-12 01:36:00,
2013-07-11 20:46:00,78.0,62.0,-100.00,SSE,160,4.0,6.0,58,0.00,,,-99.99,,2013-07-12 01:46:00,
2013-07-11 20:55:00,77.0,62.0,-100.00,SE,145,3.0,4.0,59,0.00,,,-99.99,,2013-07-12 01:55:00,
2013-07-11 21:06:00,77.0,62.0,-100.00,SSE,160,3.0,4.0,60,0.00,,,-99.99,,2013-07-12 02:06:00,
2013-07-11 21:24:00,74.0,65.0,-100.00,SE,135,4.0,5.0,72,0.00,,,-99.99,,2013-07-12 02:24:00,
2013-07-11 21:35:00,74.0,65.0,-100.00,SE,135,4.0,5.0,72,0.00,,,-99.99,,2013-07-12 02:35:00,
2013-07-11 21:44:00,72.0,65.0,-100.00,ESE,115,2.0,3.0,76,0.00,,,-99.99,,2013-07-12 02:44:00,
2013-07-11 21:53:00,73.0,65.0,-100.00,SE,130,2.0,4.0,77,0.14,,,-99.99,,2013-07-12 02:53:00,
2013-07-11 22:14:00,72.0,64.0,-100.00,ESE,115,4.0,4.0,76,0.00,,,-99.99,,2013-07-12 03:14:00,
2013-07-11 22:37:00,71.0,64.0,-100.00,SE,130,4.0,6.0,78,0.00,,,-99.99,,2013-07-12 03:37:00,
2013-07-11 23:01:00,70.0,63.0,-100.00,SE,135,4.0,4.0,77,0.00,,,-99.99,,2013-07-12 04:01:00,
2013-07-11 23:11:00,70.0,63.0,-100.00,ESE,120,4.0,6.0,79,0.00,,,-99.99,,2013-07-12 04:11:00,
2013-07-11 23:43:00,69.0,62.0,-100.00,SE,140,5.0,8.0,78,0.00,,,-99.99,,2013-07-12 04:43:00,